createdAt,value
2016-06-25T00:00:24.891Z,0
2016-06-25T00:01:24.299Z,0
2016-06-25T00:02:24.906Z,0
2016-06-25T00:03:24.307Z,0
2016-06-25T00:04:24.928Z,0
2016-06-25T00:05:24.941Z,0
2016-06-25T00:06:24.367Z,0
2016-06-25T00:07:24.378Z,0
2016-06-25T00:08:24.976Z,0
2016-06-25T00:09:24.396Z,0
2016-06-25T00:10:24.406Z,0
2016-06-25T00:11:25.012Z,0
2016-06-25T00:12:25.027Z,0
2016-06-25T00:13:25.034Z,0
2016-06-25T00:14:25.025Z,0
2016-06-25T00:15:23.875Z,0
2016-06-25T00:16:25.052Z,0
2016-06-25T00:17:25.731Z,0
2016-06-25T00:18:25.082Z,0
2016-06-25T00:19:25.738Z,0
2016-06-25T00:20:24.521Z,0
2016-06-25T00:21:24.525Z,0
2016-06-25T00:22:24.549Z,0
2016-06-25T00:23:24.542Z,0
2016-06-25T00:24:24.554Z,0
2016-06-25T00:25:24.578Z,0
2016-06-25T00:26:25.170Z,0
2016-06-25T00:27:24.622Z,0
2016-06-25T00:28:24.601Z,0
2016-06-25T00:29:24.024Z,0
2016-06-25T00:30:24.032Z,0
2016-06-25T00:31:25.254Z,0
2016-06-25T00:32:24.661Z,0
2016-06-25T00:33:25.306Z,0
2016-06-25T00:34:24.688Z,0
2016-06-25T00:35:25.279Z,0
2016-06-25T00:36:24.692Z,0
2016-06-25T00:37:24.112Z,0
2016-06-25T00:38:25.326Z,0
2016-06-25T00:39:25.330Z,0
2016-06-25T00:40:25.361Z,0
2016-06-25T00:41:25.337Z,0
2016-06-25T00:42:25.959Z,0
2016-06-25T00:43:25.966Z,0
2016-06-25T00:44:25.379Z,0
2016-06-25T00:45:24.798Z,0
2016-06-25T00:46:26.014Z,0
2016-06-25T00:47:25.414Z,0
2016-06-25T00:48:25.419Z,0
2016-06-25T00:49:25.437Z,0
2016-06-25T00:50:25.437Z,0
2016-06-25T00:51:25.446Z,0
2016-06-25T00:52:26.066Z,0
2016-06-25T00:53:24.324Z,0
2016-06-25T00:54:25.509Z,0
2016-06-25T00:55:25.506Z,0
2016-06-25T00:56:25.518Z,0
2016-06-25T00:57:24.936Z,0
2016-06-25T00:58:24.935Z,0
2016-06-25T00:59:25.545Z,0
2016-06-25T01:00:25.587Z,0
2016-06-25T01:01:25.569Z,0
2016-06-25T01:02:24.989Z,0
2016-06-25T01:03:24.399Z,0
2016-06-25T01:04:24.411Z,0
2016-06-25T01:05:25.620Z,0
2016-06-25T01:06:25.629Z,0
2016-06-25T01:07:25.047Z,0
2016-06-25T01:08:25.661Z,0
2016-06-25T01:09:25.064Z,0
2016-06-25T01:10:26.271Z,0
2016-06-25T01:11:26.298Z,0
2016-06-25T01:12:25.104Z,0
2016-06-25T01:13:25.707Z,0
2016-06-25T01:14:25.720Z,0
2016-06-25T01:15:24.525Z,0
2016-06-25T01:16:25.798Z,0
2016-06-25T01:17:25.153Z,0
2016-06-25T01:18:25.832Z,0
2016-06-25T01:19:25.778Z,0
2016-06-25T01:20:26.415Z,0
2016-06-25T01:21:25.202Z,0
2016-06-25T01:22:25.210Z,0
2016-06-25T01:23:26.465Z,0
2016-06-25T01:24:24.630Z,0
2016-06-25T01:25:25.243Z,0
2016-06-25T01:26:25.856Z,0
2016-06-25T01:27:26.473Z,0
2016-06-25T01:28:24.702Z,0
2016-06-25T01:29:25.886Z,0
2016-06-25T01:30:25.956Z,0
2016-06-25T01:31:24.744Z,0
2016-06-25T01:32:25.973Z,0
2016-06-25T01:33:25.946Z,0
2016-06-25T01:34:25.347Z,0
2016-06-25T01:35:26.570Z,0
2016-06-25T01:36:25.991Z,0
2016-06-25T01:37:26.584Z,0
2016-06-25T01:38:25.405Z,0
2016-06-25T01:39:25.411Z,0
2016-06-25T01:40:26.033Z,0
2016-06-25T01:41:25.434Z,0
2016-06-25T01:42:26.656Z,0
2016-06-25T01:43:25.471Z,0
2016-06-25T01:44:26.074Z,0
2016-06-25T01:45:24.863Z,0
2016-06-25T01:46:26.082Z,0
2016-06-25T01:47:26.083Z,0
2016-06-25T01:48:25.505Z,0
2016-06-25T01:49:24.930Z,0
2016-06-25T01:50:26.727Z,0
2016-06-25T01:51:26.139Z,0
2016-06-25T01:52:26.190Z,0
2016-06-25T01:53:25.554Z,0
2016-06-25T01:54:25.568Z,0
2016-06-25T01:55:26.787Z,0
2016-06-25T01:56:24.977Z,0
2016-06-25T01:57:26.222Z,0
2016-06-25T01:58:25.632Z,0
2016-06-25T01:59:26.229Z,0
2016-06-25T02:00:26.242Z,0
2016-06-25T02:01:26.257Z,0
2016-06-25T02:02:25.667Z,0
2016-06-25T02:03:25.710Z,0
2016-06-25T02:04:26.315Z,0
2016-06-25T02:05:26.307Z,0
2016-06-25T02:06:26.293Z,0
2016-06-25T02:07:26.952Z,0
2016-06-25T02:08:26.900Z,0
2016-06-25T02:09:26.336Z,0
2016-06-25T02:10:25.746Z,0
2016-06-25T02:11:26.350Z,0
2016-06-25T02:12:26.363Z,0
2016-06-25T02:13:25.186Z,0
2016-06-25T02:14:27.004Z,0
2016-06-25T02:15:25.827Z,0
2016-06-25T02:16:26.417Z,0
2016-06-25T02:17:26.419Z,0
2016-06-25T02:18:25.235Z,0
2016-06-25T02:19:26.464Z,0
2016-06-25T02:20:25.865Z,0
2016-06-25T02:21:25.877Z,0
2016-06-25T02:22:25.888Z,0
2016-06-25T02:23:26.514Z,0
2016-06-25T02:24:26.510Z,0
2016-06-25T02:25:26.531Z,0
2016-06-25T02:26:26.525Z,0
2016-06-25T02:27:27.128Z,0
2016-06-25T02:28:25.982Z,0
2016-06-25T02:29:27.178Z,0
2016-06-25T02:30:25.998Z,0
2016-06-25T02:31:26.588Z,0
2016-06-25T02:32:26.601Z,0
2016-06-25T02:33:25.452Z,0
2016-06-25T02:34:26.639Z,0
2016-06-25T02:35:27.226Z,0
2016-06-25T02:36:26.035Z,0
2016-06-25T02:37:26.653Z,0
2016-06-25T02:38:26.091Z,0
2016-06-25T02:39:26.677Z,0
2016-06-25T02:40:26.082Z,0
2016-06-25T02:41:26.702Z,0
2016-06-25T02:42:27.318Z,0
2016-06-25T02:43:26.124Z,0
2016-06-25T02:44:27.334Z,0
2016-06-25T02:45:26.145Z,0
2016-06-25T02:46:26.776Z,0
2016-06-25T02:47:26.151Z,0
2016-06-25T02:48:26.183Z,0
2016-06-25T02:49:26.211Z,0
2016-06-25T02:50:26.799Z,0
2016-06-25T02:51:25.622Z,0
2016-06-25T02:52:26.815Z,0
2016-06-25T02:53:26.838Z,0
2016-06-25T02:54:26.878Z,0
2016-06-25T02:55:27.457Z,0
2016-06-25T02:56:26.257Z,0
2016-06-25T02:57:27.475Z,0
2016-06-25T02:58:27.471Z,0
2016-06-25T02:59:27.497Z,0
2016-06-25T03:00:26.293Z,0
2016-06-25T03:01:26.918Z,0
2016-06-25T03:02:26.342Z,0
2016-06-25T03:03:26.949Z,0
2016-06-25T03:04:26.338Z,0
2016-06-25T03:05:27.583Z,0
2016-06-25T03:06:26.385Z,0
2016-06-25T03:07:26.400Z,0
2016-06-25T03:08:27.596Z,0
2016-06-25T03:09:26.412Z,0
2016-06-25T03:10:26.419Z,0
2016-06-25T03:11:27.031Z,0
2016-06-25T03:12:27.046Z,0
2016-06-25T03:13:25.858Z,0
2016-06-25T03:14:27.063Z,0
2016-06-25T03:15:27.950Z,0
2016-06-25T03:16:27.703Z,0
2016-06-25T03:17:27.209Z,0
2016-06-25T03:18:27.873Z,0
2016-06-25T03:19:27.377Z,0
2016-06-25T03:20:27.288Z,0
2016-06-25T03:21:26.747Z,0
2016-06-25T03:22:27.328Z,0
2016-06-25T03:23:26.571Z,0
2016-06-25T03:24:26.579Z,0
2016-06-25T03:25:27.777Z,0
2016-06-25T03:26:27.789Z,0
2016-06-25T03:27:26.010Z,0
2016-06-25T03:28:26.612Z,0
2016-06-25T03:29:26.629Z,0
2016-06-25T03:30:27.261Z,0
2016-06-25T03:31:26.666Z,0
2016-06-25T03:32:27.262Z,0
2016-06-25T03:33:26.070Z,0
2016-06-25T03:34:26.686Z,0
2016-06-25T03:35:27.897Z,0
2016-06-25T03:36:26.710Z,0
2016-06-25T03:37:26.737Z,0
2016-06-25T03:38:27.339Z,0
2016-06-25T03:39:27.367Z,0
2016-06-25T03:40:26.754Z,0
2016-06-25T03:41:27.954Z,0
2016-06-25T03:42:26.778Z,0
2016-06-25T03:43:27.420Z,0
2016-06-25T03:44:26.811Z,0
2016-06-25T03:45:26.799Z,0
2016-06-25T03:46:26.833Z,0
2016-06-25T03:47:27.437Z,0
2016-06-25T03:48:26.835Z,0
2016-06-25T03:49:28.074Z,4
2016-06-25T03:50:27.455Z,4
2016-06-25T03:51:26.270Z,4
2016-06-25T03:52:27.483Z,4
2016-06-25T03:53:26.900Z,0
2016-06-25T03:54:26.934Z,0
2016-06-25T03:55:28.114Z,4
2016-06-25T03:56:27.530Z,4
2016-06-25T03:57:26.347Z,4
2016-06-25T03:58:26.965Z,4
2016-06-25T03:59:26.967Z,0
2016-06-25T04:00:27.595Z,4
2016-06-25T04:01:27.601Z,4
2016-06-25T04:02:27.594Z,4
2016-06-25T04:03:27.607Z,4
2016-06-25T04:04:27.032Z,4
2016-06-25T04:05:26.425Z,4
2016-06-25T04:06:28.247Z,4
2016-06-25T04:07:27.059Z,4
2016-06-25T04:08:28.244Z,4
2016-06-25T04:09:27.684Z,8
2016-06-25T04:10:27.689Z,8
2016-06-25T04:11:27.694Z,4
2016-06-25T04:12:27.697Z,4
2016-06-25T04:13:28.331Z,4
2016-06-25T04:14:27.140Z,4
2016-06-25T04:15:26.539Z,4
2016-06-25T04:16:26.555Z,4
2016-06-25T04:17:27.757Z,8
2016-06-25T04:18:26.633Z,4
2016-06-25T04:19:26.596Z,8
2016-06-25T04:20:27.257Z,8
2016-06-25T04:21:28.400Z,4
2016-06-25T04:22:27.830Z,8
2016-06-25T04:23:27.824Z,8
2016-06-25T04:24:27.260Z,8
2016-06-25T04:25:27.846Z,8
2016-06-25T04:26:26.673Z,12
2016-06-25T04:27:27.290Z,8
2016-06-25T04:28:27.295Z,12
2016-06-25T04:29:28.491Z,12
2016-06-25T04:30:28.511Z,12
2016-06-25T04:31:27.318Z,12
2016-06-25T04:32:27.369Z,12
2016-06-25T04:33:27.364Z,12
2016-06-25T04:34:27.352Z,12
2016-06-25T04:35:27.962Z,12
2016-06-25T04:36:27.974Z,12
2016-06-25T04:37:28.010Z,16
2016-06-25T04:38:27.995Z,12
2016-06-25T04:39:27.404Z,12
2016-06-25T04:40:27.449Z,12
2016-06-25T04:41:28.054Z,8
2016-06-25T04:42:28.043Z,12
2016-06-25T04:43:28.671Z,12
2016-06-25T04:44:28.682Z,16
2016-06-25T04:45:28.076Z,16
2016-06-25T04:46:27.487Z,16
2016-06-25T04:47:27.505Z,12
2016-06-25T04:48:27.512Z,12
2016-06-25T04:49:27.578Z,12
2016-06-25T04:50:28.123Z,12
2016-06-25T04:51:27.530Z,12
2016-06-25T04:52:26.966Z,12
2016-06-25T04:53:27.574Z,12
2016-06-25T04:54:28.173Z,12
2016-06-25T04:55:28.197Z,12
2016-06-25T04:56:28.211Z,12
2016-06-25T04:57:27.594Z,12
2016-06-25T04:58:28.215Z,12
2016-06-25T04:59:28.219Z,16
2016-06-25T05:00:28.231Z,12
2016-06-25T05:01:27.654Z,16
2016-06-25T05:02:28.862Z,12
2016-06-25T05:03:28.882Z,12
2016-06-25T05:04:28.287Z,8
2016-06-25T05:05:28.291Z,8
2016-06-25T05:06:28.345Z,16
2016-06-25T05:07:27.128Z,16
2016-06-25T05:08:28.325Z,12
2016-06-25T05:09:27.743Z,16
2016-06-25T05:10:28.358Z,12
2016-06-25T05:11:28.348Z,12
2016-06-25T05:12:28.984Z,12
2016-06-25T05:13:28.997Z,12
2016-06-25T05:14:27.795Z,16
2016-06-25T05:15:28.461Z,12
2016-06-25T05:16:27.809Z,12
2016-06-25T05:17:27.833Z,16
2016-06-25T05:18:28.460Z,12
2016-06-25T05:19:28.482Z,12
2016-06-25T05:20:28.466Z,12
2016-06-25T05:21:28.471Z,12
2016-06-25T05:22:28.500Z,8
2016-06-25T05:23:27.902Z,12
2016-06-25T05:24:29.119Z,12
2016-06-25T05:25:28.514Z,12
2016-06-25T05:26:29.142Z,12
2016-06-25T05:27:27.369Z,12
2016-06-25T05:28:29.144Z,12
2016-06-25T05:29:27.980Z,12
2016-06-25T05:30:28.604Z,12
2016-06-25T05:31:29.216Z,16
2016-06-25T05:32:28.587Z,16
2016-06-25T05:33:28.618Z,16
2016-06-25T05:34:28.640Z,16
2016-06-25T05:35:28.649Z,16
2016-06-25T05:36:28.642Z,16
2016-06-25T05:37:28.659Z,16
2016-06-25T05:38:28.662Z,16
2016-06-25T05:39:28.099Z,16
2016-06-25T05:40:28.102Z,12
2016-06-25T05:41:28.713Z,16
2016-06-25T05:42:28.133Z,12
2016-06-25T05:43:29.330Z,8
2016-06-25T05:44:28.730Z,16
2016-06-25T05:45:28.746Z,16
2016-06-25T05:46:28.156Z,16
2016-06-25T05:47:28.797Z,16
2016-06-25T05:48:28.787Z,16
2016-06-25T05:49:28.199Z,16
2016-06-25T05:50:29.386Z,16
2016-06-25T05:51:28.852Z,16
2016-06-25T05:52:29.431Z,16
2016-06-25T05:53:28.836Z,16
2016-06-25T05:54:27.676Z,12
2016-06-25T05:55:29.468Z,12
2016-06-25T05:56:28.898Z,12
2016-06-25T05:57:28.863Z,12
2016-06-25T05:58:28.890Z,12
2016-06-25T05:59:28.899Z,12
2016-06-25T06:00:28.937Z,12
2016-06-25T06:01:28.330Z,12
2016-06-25T06:02:29.526Z,12
2016-06-25T06:03:28.962Z,12
2016-06-25T06:04:28.953Z,12
2016-06-25T06:05:27.784Z,12
2016-06-25T06:06:27.793Z,12
2016-06-25T06:07:29.614Z,12
2016-06-25T06:08:29.002Z,12
2016-06-25T06:09:29.021Z,12
2016-06-25T06:10:29.620Z,12
2016-06-25T06:11:29.055Z,12
2016-06-25T06:12:29.072Z,12
2016-06-25T06:13:27.871Z,12
2016-06-25T06:14:29.693Z,12
2016-06-25T06:15:29.687Z,12
2016-06-25T06:16:28.497Z,12
2016-06-25T06:17:29.110Z,12
2016-06-25T06:18:27.973Z,16
2016-06-25T06:19:29.131Z,16
2016-06-25T06:20:28.541Z,16
2016-06-25T06:21:28.571Z,12
2016-06-25T06:22:28.571Z,12
2016-06-25T06:23:28.580Z,12
2016-06-25T06:24:29.783Z,12
2016-06-25T06:25:29.837Z,12
2016-06-25T06:26:28.618Z,12
2016-06-25T06:27:29.815Z,12
2016-06-25T06:28:28.640Z,12
2016-06-25T06:29:29.261Z,12
2016-06-25T06:30:28.658Z,12
2016-06-25T06:31:28.664Z,12
2016-06-25T06:32:28.699Z,12
2016-06-25T06:33:29.293Z,12
2016-06-25T06:34:29.898Z,12
2016-06-25T06:35:28.715Z,12
2016-06-25T06:36:29.319Z,12
2016-06-25T06:37:28.118Z,12
2016-06-25T06:38:28.150Z,12
2016-06-25T06:39:28.736Z,12
2016-06-25T06:40:28.154Z,12
2016-06-25T06:41:28.158Z,12
2016-06-25T06:42:28.229Z,12
2016-06-25T06:43:29.979Z,12
2016-06-25T06:44:28.805Z,12
2016-06-25T06:45:29.433Z,12
2016-06-25T06:46:28.846Z,12
2016-06-25T06:47:28.230Z,12
2016-06-25T06:48:29.456Z,12
2016-06-25T06:49:30.070Z,12
2016-06-25T06:50:28.874Z,12
2016-06-25T06:51:29.491Z,12
2016-06-25T06:52:28.899Z,12
2016-06-25T06:53:30.094Z,12
2016-06-25T06:54:28.927Z,12
2016-06-25T06:55:29.537Z,12
2016-06-25T06:56:28.342Z,12
2016-06-25T06:57:28.357Z,12
2016-06-25T06:58:28.957Z,12
2016-06-25T06:59:28.986Z,12
2016-06-25T07:00:29.022Z,12
2016-06-25T07:01:28.410Z,12
2016-06-25T07:02:29.005Z,12
2016-06-25T07:03:29.623Z,12
2016-06-25T07:04:30.219Z,12
2016-06-25T07:05:29.058Z,12
2016-06-25T07:06:29.045Z,12
2016-06-25T07:07:30.271Z,12
2016-06-25T07:08:29.666Z,12
2016-06-25T07:09:30.277Z,12
2016-06-25T07:10:29.690Z,12
2016-06-25T07:11:28.510Z,12
2016-06-25T07:12:29.133Z,12
2016-06-25T07:13:29.723Z,12
2016-06-25T07:14:29.140Z,12
2016-06-25T07:15:29.756Z,12
2016-06-25T07:16:30.374Z,12
2016-06-25T07:17:29.773Z,12
2016-06-25T07:18:29.878Z,12
2016-06-25T07:19:28.604Z,12
2016-06-25T07:20:30.418Z,12
2016-06-25T07:21:29.259Z,12
2016-06-25T07:22:30.429Z,12
2016-06-25T07:23:29.858Z,12
2016-06-25T07:24:30.452Z,12
2016-06-25T07:25:29.267Z,12
2016-06-25T07:26:30.486Z,12
2016-06-25T07:27:29.915Z,12
2016-06-25T07:28:30.502Z,12
2016-06-25T07:29:29.910Z,12
2016-06-25T07:30:28.777Z,12
2016-06-25T07:31:30.523Z,12
2016-06-25T07:32:28.739Z,16
2016-06-25T07:33:29.354Z,16
2016-06-25T07:34:30.546Z,16
2016-06-25T07:35:29.407Z,16
2016-06-25T07:36:30.585Z,16
2016-06-25T07:37:30.601Z,16
2016-06-25T07:38:28.813Z,16
2016-06-25T07:39:30.668Z,16
2016-06-25T07:40:30.665Z,16
2016-06-25T07:41:30.642Z,12
2016-06-25T07:42:30.647Z,12
2016-06-25T07:43:29.469Z,12
2016-06-25T07:44:30.067Z,12
2016-06-25T07:45:29.496Z,12
2016-06-25T07:46:28.892Z,12
2016-06-25T07:47:30.134Z,12
2016-06-25T07:48:30.145Z,12
2016-06-25T07:49:30.122Z,12
2016-06-25T07:50:30.180Z,12
2016-06-25T07:51:30.155Z,12
2016-06-25T07:52:29.567Z,12
2016-06-25T07:53:30.178Z,12
2016-06-25T07:54:30.185Z,12
2016-06-25T07:55:30.246Z,16
2016-06-25T07:56:30.794Z,16
2016-06-25T07:57:30.816Z,16
2016-06-25T07:58:30.840Z,16
2016-06-25T07:59:30.840Z,16
2016-06-25T08:00:30.243Z,16
2016-06-25T08:01:29.051Z,16
2016-06-25T08:02:29.670Z,16
2016-06-25T08:03:29.675Z,16
2016-06-25T08:04:30.930Z,16
2016-06-25T08:05:30.305Z,16
2016-06-25T08:06:29.152Z,16
2016-06-25T08:07:29.718Z,16
2016-06-25T08:08:30.340Z,16
2016-06-25T08:09:29.746Z,16
2016-06-25T08:10:30.383Z,16
2016-06-25T08:11:30.375Z,16
2016-06-25T08:12:30.985Z,16
2016-06-25T08:13:30.405Z,16
2016-06-25T08:14:29.827Z,16
2016-06-25T08:15:30.439Z,16
2016-06-25T08:16:29.872Z,16
2016-06-25T08:17:30.456Z,16
2016-06-25T08:18:29.884Z,16
2016-06-25T08:19:31.071Z,16
2016-06-25T08:20:31.110Z,16
2016-06-25T08:21:29.876Z,16
2016-06-25T08:22:30.524Z,16
2016-06-25T08:23:31.113Z,16
2016-06-25T08:24:29.342Z,16
2016-06-25T08:25:30.627Z,16
2016-06-25T08:26:31.312Z,12
2016-06-25T08:27:30.567Z,12
2016-06-25T08:28:31.163Z,12
2016-06-25T08:29:29.973Z,16
2016-06-25T08:30:30.596Z,16
2016-06-25T08:31:30.622Z,16
2016-06-25T08:32:30.014Z,16
2016-06-25T08:33:30.021Z,16
2016-06-25T08:34:30.639Z,16
2016-06-25T08:35:31.274Z,16
2016-06-25T08:36:30.651Z,16
2016-06-25T08:37:30.063Z,16
2016-06-25T08:38:29.480Z,16
2016-06-25T08:39:30.077Z,16
2016-06-25T08:40:30.690Z,16
2016-06-25T08:41:29.522Z,16
2016-06-25T08:42:30.728Z,16
2016-06-25T08:43:31.345Z,16
2016-06-25T08:44:30.142Z,16
2016-06-25T08:45:30.152Z,16
2016-06-25T08:46:30.177Z,16
2016-06-25T08:47:30.172Z,16
2016-06-25T08:48:30.787Z,20
2016-06-25T08:49:30.241Z,20
2016-06-25T08:50:30.803Z,20
2016-06-25T08:51:30.824Z,20
2016-06-25T08:52:30.832Z,20
2016-06-25T08:53:30.251Z,20
2016-06-25T08:54:30.837Z,20
2016-06-25T08:55:31.465Z,20
2016-06-25T08:56:30.870Z,20
2016-06-25T08:57:29.689Z,20
2016-06-25T08:58:31.505Z,16
2016-06-25T08:59:30.926Z,16
2016-06-25T09:00:31.527Z,16
2016-06-25T09:01:30.939Z,16
2016-06-25T09:02:30.334Z,16
2016-06-25T09:03:29.762Z,16
2016-06-25T09:04:30.371Z,16
2016-06-25T09:05:30.978Z,20
2016-06-25T09:06:30.391Z,20
2016-06-25T09:07:30.996Z,20
2016-06-25T09:08:31.010Z,20
2016-06-25T09:09:30.422Z,20
2016-06-25T09:10:31.040Z,20
2016-06-25T09:11:31.637Z,20
2016-06-25T09:12:31.061Z,20
2016-06-25T09:13:31.053Z,20
2016-06-25T09:14:30.493Z,20
2016-06-25T09:15:30.498Z,20
2016-06-25T09:16:30.504Z,20
2016-06-25T09:17:31.757Z,20
2016-06-25T09:18:31.736Z,20
2016-06-25T09:19:31.130Z,20
2016-06-25T09:20:31.790Z,20
2016-06-25T09:21:30.572Z,20
2016-06-25T09:22:29.975Z,20
2016-06-25T09:23:30.591Z,20
2016-06-25T09:24:31.191Z,20
2016-06-25T09:25:30.615Z,20
2016-06-25T09:26:31.210Z,20
2016-06-25T09:27:30.031Z,20
2016-06-25T09:28:30.650Z,20
2016-06-25T09:29:30.641Z,20
2016-06-25T09:30:30.097Z,20
2016-06-25T09:31:31.869Z,20
2016-06-25T09:32:31.292Z,20
2016-06-25T09:33:31.330Z,20
2016-06-25T09:34:31.362Z,20
2016-06-25T09:35:30.742Z,20
2016-06-25T09:36:30.757Z,20
2016-06-25T09:37:30.778Z,20
2016-06-25T09:38:31.358Z,24
2016-06-25T09:39:30.784Z,24
2016-06-25T09:40:30.775Z,24
2016-06-25T09:41:31.993Z,24
2016-06-25T09:42:31.404Z,24
2016-06-25T09:43:31.423Z,24
2016-06-25T09:44:32.231Z,24
2016-06-25T09:45:30.831Z,24
2016-06-25T09:46:32.052Z,24
2016-06-25T09:47:30.884Z,24
2016-06-25T09:48:32.159Z,24
2016-06-25T09:49:31.485Z,20
2016-06-25T09:50:30.890Z,20
2016-06-25T09:51:31.507Z,20
2016-06-25T09:52:31.528Z,20
2016-06-25T09:53:30.330Z,20
2016-06-25T09:54:30.936Z,20
2016-06-25T09:55:31.575Z,20
2016-06-25T09:56:30.986Z,24
2016-06-25T09:57:31.601Z,24
2016-06-25T09:58:32.190Z,24
2016-06-25T09:59:31.613Z,24
2016-06-25T10:00:31.035Z,24
2016-06-25T10:01:31.678Z,24
2016-06-25T10:02:31.043Z,24
2016-06-25T10:03:31.041Z,24
2016-06-25T10:04:31.659Z,24
2016-06-25T10:05:31.663Z,24
2016-06-25T10:06:31.083Z,24
2016-06-25T10:07:31.085Z,24
2016-06-25T10:08:31.691Z,24
2016-06-25T10:09:31.118Z,24
2016-06-25T10:10:31.147Z,24
2016-06-25T10:11:31.725Z,24
2016-06-25T10:12:31.139Z,24
2016-06-25T10:13:31.164Z,24
2016-06-25T10:14:31.779Z,24
2016-06-25T10:15:32.371Z,24
2016-06-25T10:16:31.222Z,24
2016-06-25T10:17:31.206Z,24
2016-06-25T10:18:31.818Z,24
2016-06-25T10:19:31.834Z,24
2016-06-25T10:20:31.226Z,20
2016-06-25T10:21:31.841Z,20
2016-06-25T10:22:31.880Z,20
2016-06-25T10:23:31.274Z,20
2016-06-25T10:24:30.679Z,24
2016-06-25T10:25:31.328Z,24
2016-06-25T10:26:32.520Z,24
2016-06-25T10:27:31.317Z,28
2016-06-25T10:28:32.534Z,24
2016-06-25T10:29:31.628Z,24
2016-06-25T10:30:31.337Z,24
2016-06-25T10:31:31.357Z,24
2016-06-25T10:32:31.380Z,24
2016-06-25T10:33:31.397Z,28
2016-06-25T10:34:31.395Z,28
2016-06-25T10:35:32.613Z,28
2016-06-25T10:36:32.610Z,24
2016-06-25T10:37:31.441Z,24
2016-06-25T10:38:31.453Z,28
2016-06-25T10:39:31.471Z,28
2016-06-25T10:40:31.453Z,28
2016-06-25T10:41:30.867Z,28
2016-06-25T10:42:31.497Z,28
2016-06-25T10:43:32.714Z,32
2016-06-25T10:44:31.504Z,28
2016-06-25T10:45:32.118Z,28
2016-06-25T10:46:30.921Z,28
2016-06-25T10:47:31.550Z,32
2016-06-25T10:48:32.174Z,28
2016-06-25T10:49:31.573Z,28
2016-06-25T10:50:32.823Z,24
2016-06-25T10:51:32.788Z,24
2016-06-25T10:52:31.611Z,28
2016-06-25T10:53:31.657Z,28
2016-06-25T10:54:32.823Z,28
2016-06-25T10:55:32.240Z,28
2016-06-25T10:56:31.658Z,28
2016-06-25T10:57:32.862Z,28
2016-06-25T10:58:31.705Z,28
2016-06-25T10:59:31.724Z,28
2016-06-25T11:00:31.701Z,28
2016-06-25T11:01:32.295Z,28
2016-06-25T11:02:31.716Z,28
2016-06-25T11:03:32.324Z,28
2016-06-25T11:04:32.949Z,28
2016-06-25T11:05:32.373Z,28
2016-06-25T11:06:31.781Z,28
2016-06-25T11:07:32.327Z,28
2016-06-25T11:08:31.783Z,28
2016-06-25T11:09:32.398Z,28
2016-06-25T11:10:33.030Z,28
2016-06-25T11:11:32.420Z,28
2016-06-25T11:12:33.052Z,28
2016-06-25T11:13:32.455Z,28
2016-06-25T11:14:32.481Z,28
2016-06-25T11:15:32.494Z,28
2016-06-25T11:16:32.470Z,24
2016-06-25T11:17:33.102Z,28
2016-06-25T11:18:31.311Z,28
2016-06-25T11:19:33.214Z,32
2016-06-25T11:20:31.922Z,32
2016-06-25T11:21:31.958Z,32
2016-06-25T11:22:32.577Z,32
2016-06-25T11:23:32.581Z,32
2016-06-25T11:24:31.977Z,32
2016-06-25T11:25:31.997Z,28
2016-06-25T11:26:31.993Z,32
2016-06-25T11:27:32.600Z,28
2016-06-25T11:28:33.220Z,24
2016-06-25T11:29:32.649Z,24
2016-06-25T11:30:31.434Z,28
2016-06-25T11:31:32.063Z,28
2016-06-25T11:32:32.660Z,28
2016-06-25T11:33:33.294Z,28
2016-06-25T11:34:32.693Z,28
2016-06-25T11:35:32.738Z,32
2016-06-25T11:36:32.720Z,32
2016-06-25T11:37:32.739Z,32
2016-06-25T11:38:32.163Z,28
2016-06-25T11:39:32.172Z,28
2016-06-25T11:40:32.167Z,32
2016-06-25T11:41:32.765Z,32
2016-06-25T11:42:32.771Z,28
2016-06-25T11:43:32.774Z,28
2016-06-25T11:44:32.211Z,28
2016-06-25T11:45:32.816Z,28
2016-06-25T11:46:32.817Z,28
2016-06-25T11:47:32.848Z,28
2016-06-25T11:48:32.272Z,28
2016-06-25T11:49:32.274Z,28
2016-06-25T11:50:32.275Z,28
2016-06-25T11:51:32.287Z,28
2016-06-25T11:52:33.505Z,28
2016-06-25T11:53:31.718Z,28
2016-06-25T11:54:32.339Z,28
2016-06-25T11:55:32.346Z,28
2016-06-25T11:56:32.950Z,32
2016-06-25T11:57:32.353Z,28
2016-06-25T11:58:32.974Z,28
2016-06-25T11:59:32.990Z,32
2016-06-25T12:00:33.007Z,32
2016-06-25T12:01:33.018Z,32
2016-06-25T12:02:33.027Z,32
2016-06-25T12:03:33.030Z,28
2016-06-25T12:04:32.479Z,28
2016-06-25T12:05:33.052Z,28
2016-06-25T12:06:32.473Z,28
2016-06-25T12:07:33.665Z,32
2016-06-25T12:08:32.511Z,32
2016-06-25T12:09:32.537Z,32
2016-06-25T12:10:33.710Z,32
2016-06-25T12:11:32.523Z,32
2016-06-25T12:12:32.526Z,32
2016-06-25T12:13:32.546Z,28
2016-06-25T12:14:32.569Z,28
2016-06-25T12:15:33.225Z,28
2016-06-25T12:16:33.215Z,28
2016-06-25T12:17:33.195Z,28
2016-06-25T12:18:32.026Z,28
2016-06-25T12:19:32.066Z,28
2016-06-25T12:20:33.851Z,28
2016-06-25T12:21:32.648Z,24
2016-06-25T12:22:33.245Z,28
2016-06-25T12:23:32.663Z,28
2016-06-25T12:24:32.667Z,28
2016-06-25T12:25:33.287Z,28
2016-06-25T12:26:33.890Z,28
2016-06-25T12:27:32.722Z,28
2016-06-25T12:28:32.725Z,28
2016-06-25T12:29:32.748Z,28
2016-06-25T12:30:32.746Z,28
2016-06-25T12:31:33.350Z,28
2016-06-25T12:32:32.770Z,28
2016-06-25T12:33:33.377Z,28
2016-06-25T12:34:33.425Z,28
2016-06-25T12:35:34.023Z,28
2016-06-25T12:36:33.420Z,28
2016-06-25T12:37:32.838Z,28
2016-06-25T12:38:32.844Z,24
2016-06-25T12:39:32.862Z,28
2016-06-25T12:40:32.874Z,28
2016-06-25T12:41:33.489Z,24
2016-06-25T12:42:32.881Z,28
2016-06-25T12:43:32.324Z,28
2016-06-25T12:44:33.520Z,28
2016-06-25T12:45:32.319Z,28
2016-06-25T12:46:32.346Z,28
2016-06-25T12:47:32.997Z,28
2016-06-25T12:48:32.978Z,24
2016-06-25T12:49:32.381Z,28
2016-06-25T12:50:33.596Z,28
2016-06-25T12:51:33.002Z,28
2016-06-25T12:52:33.007Z,28
2016-06-25T12:53:34.257Z,28
2016-06-25T12:54:33.033Z,28
2016-06-25T12:55:33.653Z,28
2016-06-25T12:56:33.124Z,28
2016-06-25T12:57:32.475Z,28
2016-06-25T12:58:33.087Z,28
2016-06-25T12:59:33.695Z,28
2016-06-25T13:00:33.706Z,28
2016-06-25T13:01:33.742Z,28
2016-06-25T13:02:33.141Z,28
2016-06-25T13:03:33.183Z,28
2016-06-25T13:04:33.169Z,28
2016-06-25T13:05:34.401Z,28
2016-06-25T13:06:32.595Z,28
2016-06-25T13:07:33.789Z,28
2016-06-25T13:08:33.225Z,24
2016-06-25T13:09:33.240Z,24
2016-06-25T13:10:33.233Z,28
2016-06-25T13:11:33.254Z,28
2016-06-25T13:12:33.858Z,28
2016-06-25T13:13:33.849Z,28
2016-06-25T13:14:33.293Z,28
2016-06-25T13:15:33.296Z,32
2016-06-25T13:16:33.915Z,32
2016-06-25T13:17:33.934Z,32
2016-06-25T13:18:33.934Z,28
2016-06-25T13:19:33.955Z,28
2016-06-25T13:20:33.979Z,28
2016-06-25T13:21:33.964Z,28
2016-06-25T13:22:33.988Z,28
2016-06-25T13:23:33.392Z,28
2016-06-25T13:24:33.398Z,28
2016-06-25T13:25:33.423Z,24
2016-06-25T13:26:34.022Z,28
2016-06-25T13:27:34.045Z,28
2016-06-25T13:28:32.876Z,28
2016-06-25T13:29:33.471Z,28
2016-06-25T13:30:33.480Z,28
2016-06-25T13:31:33.510Z,24
2016-06-25T13:32:33.496Z,24
2016-06-25T13:33:32.931Z,24
2016-06-25T13:34:32.929Z,24
2016-06-25T13:35:34.160Z,24
2016-06-25T13:36:34.779Z,24
2016-06-25T13:37:33.585Z,24
2016-06-25T13:38:33.568Z,24
2016-06-25T13:39:34.395Z,28
2016-06-25T13:40:35.142Z,24
2016-06-25T13:41:33.741Z,24
2016-06-25T13:42:34.217Z,24
2016-06-25T13:43:34.838Z,28
2016-06-25T13:44:33.047Z,28
2016-06-25T13:45:34.266Z,24
2016-06-25T13:46:34.880Z,24
2016-06-25T13:47:34.895Z,24
2016-06-25T13:48:34.280Z,24
2016-06-25T13:49:33.741Z,24
2016-06-25T13:50:33.725Z,24
2016-06-25T13:51:33.726Z,24
2016-06-25T13:52:34.351Z,24
2016-06-25T13:53:33.756Z,24
2016-06-25T13:54:34.393Z,24
2016-06-25T13:55:33.764Z,24
2016-06-25T13:56:33.783Z,24
2016-06-25T13:57:34.397Z,24
2016-06-25T13:58:33.807Z,28
2016-06-25T13:59:33.821Z,24
2016-06-25T14:00:33.858Z,24
2016-06-25T14:01:34.455Z,28
2016-06-25T14:02:34.442Z,28
2016-06-25T14:03:33.885Z,28
2016-06-25T14:04:33.286Z,24
2016-06-25T14:05:33.898Z,24
2016-06-25T14:06:34.506Z,24
2016-06-25T14:07:33.329Z,20
2016-06-25T14:08:33.941Z,20
2016-06-25T14:09:34.556Z,24
2016-06-25T14:10:33.956Z,24
2016-06-25T14:11:34.573Z,24
2016-06-25T14:12:33.967Z,20
2016-06-25T14:13:35.204Z,24
2016-06-25T14:14:34.605Z,24
2016-06-25T14:15:35.216Z,24
2016-06-25T14:16:35.240Z,24
2016-06-25T14:17:34.641Z,24
2016-06-25T14:18:34.085Z,24
2016-06-25T14:19:34.731Z,16
2016-06-25T14:20:35.278Z,16
2016-06-25T14:21:33.479Z,24
2016-06-25T14:22:34.714Z,24
2016-06-25T14:23:34.115Z,24
2016-06-25T14:24:34.157Z,24
2016-06-25T14:25:34.749Z,24